Time;durP1;ratioP1;P1;durP2;ratioP2;P2;SDS_P1;SDS_P2;PMS_P1;PMS_P2;Temp;Humidity;BMP_temperature;BMP_pressure;BME280_temperature;BME280_humidity;BME280_pressure;Samples;Min_cycle;Max_cycle;Signal;HPM_P1;HPM_P2
2023/01/09 00:00:15;;;;;;;3.25;2.38;;;4.10;99.90;;;;;;5069290;28;20081;-52
2023/01/09 00:02:41;;;;;;;3.08;2.25;;;4.10;99.90;;;;;;5068915;28;20032;-54
2023/01/09 00:05:07;;;;;;;3.35;2.42;;;4.10;99.90;;;;;;5048400;28;20031;-56
2023/01/09 00:07:33;;;;;;;2.33;1.90;;;4.10;99.90;;;;;;5069935;28;20162;-57
2023/01/09 00:09:59;;;;;;;2.80;2.13;;;4.10;99.90;;;;;;5065688;28;20100;-56
2023/01/09 00:12:25;;;;;;;3.00;2.00;;;4.10;99.90;;;;;;5064096;28;20020;-55
2023/01/09 00:14:51;;;;;;;3.72;2.08;;;4.10;99.90;;;;;;5065905;28;20021;-56
2023/01/09 00:17:16;;;;;;;4.60;2.78;;;4.00;99.90;;;;;;5059888;28;20024;-54
2023/01/09 00:19:42;;;;;;;2.70;2.08;;;4.00;99.90;;;;;;5070616;28;20053;-56
2023/01/09 00:22:08;;;;;;;2.55;2.33;;;4.10;99.90;;;;;;5044022;28;20040;-55
2023/01/09 00:24:35;;;;;;;3.63;2.53;;;4.10;99.90;;;;;;5068786;28;20423;-55
2023/01/09 00:27:01;;;;;;;2.38;2.17;;;4.00;99.90;;;;;;5044527;28;20028;-56
2023/01/09 00:29:27;;;;;;;2.95;2.25;;;4.10;99.90;;;;;;5060466;28;20033;-56
2023/01/09 00:31:52;;;;;;;2.35;1.83;;;4.10;99.90;;;;;;5060702;28;20535;-55
2023/01/09 00:34:18;;;;;;;2.13;1.98;;;4.10;99.90;;;;;;5065927;28;20066;-54
2023/01/09 00:36:43;;;;;;;4.82;2.50;;;4.10;99.90;;;;;;5069287;28;20024;-54
2023/01/09 00:39:09;;;;;;;2.50;2.13;;;4.10;99.90;;;;;;5063464;28;20492;-53
2023/01/09 00:41:39;;;;;;;2.38;2.05;;;4.10;99.90;;;;;;5071378;28;20034;-53
2023/01/09 00:44:16;;;;;;;2.33;1.80;;;4.10;99.90;;;;;;5061831;28;20021;-56
2023/01/09 00:46:47;;;;;;;2.22;2.03;;;4.00;99.90;;;;;;5039568;28;20029;-54
2023/01/09 00:49:14;;;;;;;2.33;1.90;;;4.00;99.90;;;;;;5044486;28;20028;-55
2023/01/09 00:51:40;;;;;;;2.90;2.08;;;4.00;99.90;;;;;;5068187;28;20430;-56
2023/01/09 00:54:07;;;;;;;2.95;2.50;;;4.00;99.90;;;;;;5064389;28;20492;-55
2023/01/09 00:56:34;;;;;;;2.20;2.00;;;4.00;99.90;;;;;;5048487;28;20032;-53
2023/01/09 00:59:00;;;;;;;3.70;1.88;;;4.00;99.90;;;;;;5064399;28;20025;-55
2023/01/09 01:01:26;;;;;;;2.60;2.40;;;4.10;99.90;;;;;;5062331;28;20439;-53
2023/01/09 01:03:53;;;;;;;3.50;2.35;;;4.10;99.90;;;;;;5068189;28;20131;-54
2023/01/09 01:09:03;;;;;;;3.60;2.05;;;4.10;99.90;;;;;;5066439;28;20404;-55
2023/01/09 01:11:31;;;;;;;2.95;2.15;;;4.10;99.90;;;;;;5064271;28;20463;-52
2023/01/09 01:13:57;;;;;;;4.30;2.80;;;4.10;99.90;;;;;;5046513;28;20020;-54
2023/01/09 01:16:22;;;;;;;3.22;2.45;;;4.20;99.90;;;;;;5048338;28;20032;-54
2023/01/09 01:18:49;;;;;;;2.08;1.95;;;4.20;99.90;;;;;;5046114;28;20025;-56
2023/01/09 01:21:15;;;;;;;2.85;2.22;;;4.20;99.90;;;;;;5068021;28;20408;-53
2023/01/09 01:23:41;;;;;;;2.25;2.05;;;4.20;99.90;;;;;;5064458;28;20021;-55
2023/01/09 01:26:13;;;;;;;2.72;2.50;;;4.20;99.90;;;;;;5068664;28;20028;-54
2023/01/09 01:28:39;;;;;;;2.78;2.05;;;4.30;99.90;;;;;;5060209;28;20039;-55
2023/01/09 01:31:05;;;;;;;2.50;2.03;;;4.30;99.90;;;;;;5061156;28;20037;-55
2023/01/09 01:33:31;;;;;;;2.70;2.17;;;4.30;99.90;;;;;;5068752;28;20033;-54
2023/01/09 01:36:06;;;;;;;4.13;2.60;;;4.30;99.90;;;;;;5061499;28;20483;-51
2023/01/09 01:38:33;;;;;;;3.83;2.30;;;4.30;99.90;;;;;;5041563;28;20026;-54
2023/01/09 01:40:59;;;;;;;2.28;2.08;;;4.30;99.90;;;;;;5065316;28;20030;-55
2023/01/09 01:43:25;;;;;;;2.40;2.20;;;4.30;99.90;;;;;;5063551;28;20097;-55
2023/01/09 01:45:50;;;;;;;3.13;2.33;;;4.30;99.90;;;;;;5065863;28;20017;-54
2023/01/09 01:48:28;;;;;;;2.88;2.30;;;4.30;99.90;;;;;;5041422;28;20025;-57
2023/01/09 01:50:59;;;;;;;3.97;2.55;;;4.30;99.90;;;;;;5049247;28;20024;-57
2023/01/09 01:53:32;;;;;;;2.80;2.55;;;4.30;99.90;;;;;;5061670;28;20021;-54
2023/01/09 01:56:14;;;;;;;2.78;2.00;;;4.30;99.90;;;;;;5041921;28;20065;-52
2023/01/09 01:58:46;;;;;;;5.72;3.00;;;4.30;99.90;;;;;;5059933;28;20108;-57
2023/01/09 02:01:12;;;;;;;2.40;2.10;;;4.30;99.90;;;;;;5065096;28;20077;-56
2023/01/09 02:03:40;;;;;;;2.92;2.40;;;4.40;99.90;;;;;;5052777;28;20032;-55
2023/01/09 02:06:06;;;;;;;2.65;2.15;;;4.30;99.90;;;;;;5064489;28;20024;-52
2023/01/09 02:08:32;;;;;;;2.90;2.38;;;4.30;99.90;;;;;;5073005;28;20123;-55
2023/01/09 02:10:58;;;;;;;3.40;2.35;;;4.30;99.90;;;;;;5070041;28;20155;-55
2023/01/09 02:13:25;;;;;;;2.80;2.15;;;4.30;99.90;;;;;;5047764;28;20025;-53
2023/01/09 02:16:09;;;;;;;2.38;2.00;;;4.30;99.90;;;;;;5055994;28;20090;-55
2023/01/09 02:18:46;;;;;;;2.97;2.30;;;4.30;99.90;;;;;;5056438;28;20025;-53
2023/01/09 02:21:31;;;;;;;2.00;1.70;;;4.30;99.90;;;;;;5056318;28;20027;-52
2023/01/09 02:24:04;;;;;;;2.60;2.40;;;4.30;99.90;;;;;;5069410;28;20021;-52
2023/01/09 02:27:03;;;;;;;5.35;2.42;;;4.30;99.90;;;;;;5071564;28;20117;-55
2023/01/09 02:30:10;;;;;;;4.20;2.47;;;4.40;99.90;;;;;;5066067;28;20025;-52
2023/01/09 02:32:42;;;;;;;2.55;2.33;;;4.50;99.90;;;;;;5040062;28;20051;-53
2023/01/09 02:35:45;;;;;;;2.28;2.08;;;4.50;99.90;;;;;;5053772;28;20024;-54
2023/01/09 02:38:39;;;;;;;3.17;2.60;;;4.50;99.90;;;;;;5056756;28;20162;-57
2023/01/09 02:41:17;;;;;;;2.38;2.03;;;4.60;99.90;;;;;;5066601;28;20025;-52
2023/01/09 02:43:43;;;;;;;3.75;2.22;;;4.60;99.90;;;;;;5060595;28;20009;-56
2023/01/09 02:46:18;;;;;;;3.10;2.42;;;4.60;99.90;;;;;;5069576;28;20013;-57
2023/01/09 02:48:45;;;;;;;4.13;2.30;;;4.60;99.90;;;;;;5061340;28;20065;-55
2023/01/09 02:51:19;;;;;;;3.63;2.55;;;4.60;99.90;;;;;;5073072;28;20013;-53
2023/01/09 02:53:59;;;;;;;3.30;2.47;;;4.70;99.90;;;;;;5062319;28;20025;-54
2023/01/09 02:56:45;;;;;;;3.45;2.45;;;4.60;99.90;;;;;;5045937;28;20021;-55
2023/01/09 02:59:20;;;;;;;3.60;2.88;;;4.70;99.90;;;;;;5069734;28;20020;-54
2023/01/09 03:02:04;;;;;;;2.42;2.22;;;4.80;99.90;;;;;;5066270;28;20488;-53
2023/01/09 03:04:46;;;;;;;2.72;2.20;;;4.70;99.90;;;;;;5051804;28;20032;-55
2023/01/09 03:07:26;;;;;;;2.22;1.75;;;4.70;99.90;;;;;;5046302;28;20044;-54
2023/01/09 03:09:59;;;;;;;3.13;2.47;;;4.80;99.90;;;;;;5065346;28;20015;-53
2023/01/09 03:12:29;;;;;;;3.75;2.55;;;4.80;99.90;;;;;;5062065;28;20439;-55
2023/01/09 03:14:58;;;;;;;3.55;2.17;;;4.80;99.90;;;;;;5048323;28;20017;-54
2023/01/09 03:17:28;;;;;;;3.20;2.53;;;4.80;99.90;;;;;;5064435;28;20020;-53
2023/01/09 03:19:56;;;;;;;4.20;3.10;;;4.90;99.90;;;;;;5068484;28;20020;-54
2023/01/09 03:22:22;;;;;;;3.80;2.33;;;5.00;99.90;;;;;;5063025;28;20082;-54
2023/01/09 03:24:47;;;;;;;2.90;2.28;;;5.00;99.90;;;;;;5071133;28;20487;-51
2023/01/09 03:27:13;;;;;;;3.20;2.28;;;5.10;99.90;;;;;;5066097;28;20029;-53
2023/01/09 03:29:39;;;;;;;3.03;2.70;;;5.10;99.90;;;;;;5148824;22;20051;-55
2023/01/09 03:32:05;;;;;;;3.75;2.50;;;5.10;99.90;;;;;;5046560;28;20028;-55
2023/01/09 03:34:30;;;;;;;2.88;2.58;;;5.20;99.90;;;;;;5070376;28;20031;-51
2023/01/09 03:36:56;;;;;;;2.75;2.15;;;5.20;99.90;;;;;;5067985;28;20032;-53
2023/01/09 03:39:21;;;;;;;2.20;2.00;;;5.30;99.90;;;;;;5071380;28;20021;-51
2023/01/09 03:41:47;;;;;;;2.90;2.20;;;5.20;99.90;;;;;;5065346;28;20051;-53
2023/01/09 03:44:12;;;;;;;5.50;2.45;;;5.30;99.90;;;;;;5067647;28;20037;-53
2023/01/09 03:46:38;;;;;;;2.60;2.38;;;5.30;99.90;;;;;;5070561;28;20112;-51
2023/01/09 03:49:04;;;;;;;3.53;2.60;;;5.30;99.90;;;;;;5071000;28;20040;-51
2023/01/09 03:51:29;;;;;;;2.78;1.88;;;5.30;99.90;;;;;;5071039;28;20029;-51
2023/01/09 03:53:55;;;;;;;3.63;2.47;;;5.30;99.90;;;;;;5063438;28;20495;-52
2023/01/09 03:56:20;;;;;;;3.03;2.20;;;5.40;99.90;;;;;;5070299;28;20400;-50
2023/01/09 03:58:48;;;;;;;3.00;2.50;;;5.40;99.90;;;;;;5071061;28;20730;-51
2023/01/09 04:01:14;;;;;;;3.58;2.30;;;5.40;99.90;;;;;;5071040;28;20031;-51
2023/01/09 04:03:40;;;;;;;2.70;2.50;;;5.40;99.90;;;;;;5071117;28;20025;-50
2023/01/09 04:06:06;;;;;;;2.75;2.55;;;5.40;99.90;;;;;;5070764;28;20450;-52
2023/01/09 04:08:32;;;;;;;3.30;2.20;;;5.40;99.90;;;;;;5071119;28;20031;-52
2023/01/09 04:10:57;;;;;;;2.65;2.40;;;5.40;99.90;;;;;;5063384;28;20068;-52
2023/01/09 04:13:23;;;;;;;4.10;2.35;;;5.40;99.90;;;;;;5070590;28;20032;-51
2023/01/09 04:15:48;;;;;;;3.00;2.50;;;5.40;99.90;;;;;;5070384;28;20669;-51
2023/01/09 04:18:14;;;;;;;2.75;2.35;;;5.40;99.90;;;;;;5070652;28;20214;-51
2023/01/09 04:20:40;;;;;;;4.20;2.45;;;5.40;99.90;;;;;;5069738;28;20040;-51
2023/01/09 04:23:06;;;;;;;2.78;2.55;;;5.40;99.90;;;;;;5070283;28;20412;-51
2023/01/09 04:25:32;;;;;;;3.88;2.58;;;5.50;99.90;;;;;;5070060;28;20531;-52
2023/01/09 04:27:58;;;;;;;2.60;2.33;;;5.50;99.90;;;;;;5070239;28;20032;-52
2023/01/09 04:30:24;;;;;;;2.60;2.40;;;5.40;99.90;;;;;;5069809;28;20032;-52
2023/01/09 04:32:50;;;;;;;2.65;2.45;;;5.40;99.90;;;;;;5070524;28;20028;-51
2023/01/09 04:35:16;;;;;;;2.72;2.50;;;5.40;99.90;;;;;;5069722;28;20047;-54
2023/01/09 04:37:42;;;;;;;2.83;2.25;;;5.50;99.90;;;;;;5069943;28;20484;-51
2023/01/09 04:40:09;;;;;;;2.30;2.08;;;5.40;99.90;;;;;;5069947;28;20036;-54
2023/01/09 04:42:35;;;;;;;2.75;2.55;;;5.50;99.90;;;;;;5070516;28;20019;-52
2023/01/09 04:45:01;;;;;;;3.25;2.33;;;5.50;99.90;;;;;;5063841;28;20074;-51
2023/01/09 04:47:26;;;;;;;2.90;2.63;;;5.50;99.90;;;;;;5051648;28;20033;-54
2023/01/09 04:49:52;;;;;;;2.50;2.08;;;5.50;99.90;;;;;;5069866;28;20067;-52
2023/01/09 04:52:18;;;;;;;2.65;2.05;;;5.50;99.90;;;;;;5069807;28;20078;-51
2023/01/09 04:54:44;;;;;;;3.15;2.55;;;5.50;99.90;;;;;;5069167;28;20078;-52
2023/01/09 04:57:09;;;;;;;3.08;2.60;;;5.50;99.90;;;;;;5069937;28;20028;-51
2023/01/09 04:59:35;;;;;;;4.68;2.83;;;5.50;99.90;;;;;;5069733;28;20046;-54
2023/01/09 05:02:00;;;;;;;2.45;2.25;;;5.50;99.90;;;;;;5069779;28;20029;-52
2023/01/09 05:04:26;;;;;;;3.28;2.85;;;5.50;99.90;;;;;;5069442;28;20780;-52
2023/01/09 05:06:52;;;;;;;4.45;2.88;;;5.50;99.90;;;;;;5069461;28;20020;-53
2023/01/09 05:09:17;;;;;;;3.72;3.17;;;5.50;99.90;;;;;;5069408;28;20472;-54
2023/01/09 05:11:43;;;;;;;3.08;2.70;;;5.50;99.90;;;;;;5051709;28;20115;-54
2023/01/09 05:14:08;;;;;;;2.97;2.67;;;5.60;99.90;;;;;;5069272;28;20024;-52
2023/01/09 05:16:34;;;;;;;2.63;2.22;;;5.60;99.90;;;;;;5069341;28;20035;-57
2023/01/09 05:19:00;;;;;;;3.38;2.65;;;5.60;99.90;;;;;;5069699;28;20086;-54
2023/01/09 05:21:26;;;;;;;4.32;2.80;;;5.60;99.90;;;;;;5051354;28;20056;-55
2023/01/09 05:23:52;;;;;;;2.90;2.67;;;5.60;99.90;;;;;;5069534;28;20488;-55
2023/01/09 05:26:22;;;;;;;2.95;2.65;;;5.60;99.90;;;;;;5068893;28;20056;-55
2023/01/09 05:28:52;;;;;;;3.08;2.63;;;5.60;99.90;;;;;;5069552;28;20035;-56
2023/01/09 05:31:18;;;;;;;12.77;3.45;;;5.60;99.90;;;;;;5068747;28;20404;-56
2023/01/09 05:33:44;;;;;;;3.00;2.80;;;5.70;99.90;;;;;;5068490;28;20020;-56
2023/01/09 05:36:09;;;;;;;3.25;2.90;;;5.70;99.90;;;;;;5068696;28;20024;-53
2023/01/09 05:38:35;;;;;;;3.03;2.50;;;5.80;99.90;;;;;;5068763;28;20031;-55
2023/01/09 05:41:00;;;;;;;2.53;1.95;;;5.80;99.90;;;;;;5069012;28;20032;-53
2023/01/09 05:43:26;;;;;;;1.50;1.40;;;5.80;99.90;;;;;;5069242;28;20032;-56
2023/01/09 05:45:51;;;;;;;2.03;1.23;;;5.90;99.90;;;;;;5063309;28;20605;-56
2023/01/09 05:48:17;;;;;;;1.38;1.27;;;5.80;99.90;;;;;;5068844;28;20028;-54
2023/01/09 05:50:42;;;;;;;1.42;1.33;;;5.80;99.90;;;;;;5068955;28;20037;-57
2023/01/09 05:53:08;;;;;;;2.47;1.20;;;5.80;99.90;;;;;;5069216;28;20492;-55
2023/01/09 05:55:34;;;;;;;1.30;1.20;;;5.80;99.90;;;;;;5068465;28;20021;-54
2023/01/09 05:57:59;;;;;;;2.22;1.15;;;5.80;99.90;;;;;;5069417;28;20430;-56
2023/01/09 06:00:25;;;;;;;2.05;1.38;;;5.80;99.90;;;;;;5069027;28;20484;-54
2023/01/09 06:02:51;;;;;;;2.08;1.70;;;5.80;99.90;;;;;;5068930;28;20024;-57
2023/01/09 06:05:16;;;;;;;1.30;1.20;;;5.80;99.90;;;;;;5068346;28;20028;-53
2023/01/09 06:07:42;;;;;;;1.80;1.42;;;5.70;99.90;;;;;;5069275;28;20024;-56
2023/01/09 06:10:10;;;;;;;1.25;1.13;;;5.70;99.90;;;;;;5050596;28;20105;-55
2023/01/09 06:12:36;;;;;;;1.20;1.10;;;5.70;99.90;;;;;;5068863;28;20020;-52
2023/01/09 06:15:02;;;;;;;1.38;1.27;;;5.70;99.90;;;;;;5068752;28;20429;-55
2023/01/09 06:17:28;;;;;;;1.70;1.38;;;5.70;99.90;;;;;;5068471;28;20023;-55
2023/01/09 06:19:53;;;;;;;1.10;1.00;;;5.70;99.90;;;;;;5068363;28;20024;-55
2023/01/09 06:22:19;;;;;;;1.73;1.35;;;5.70;99.90;;;;;;5068330;28;20404;-56
2023/01/09 06:24:44;;;;;;;2.70;1.73;;;5.70;99.90;;;;;;5068499;28;20099;-56
2023/01/09 06:27:11;;;;;;;1.83;1.42;;;5.70;99.90;;;;;;5068653;28;20063;-55
2023/01/09 06:29:37;;;;;;;1.42;1.30;;;5.70;99.90;;;;;;5064561;28;20280;-54
2023/01/09 06:32:03;;;;;;;1.50;1.40;;;5.70;99.90;;;;;;5068762;28;20040;-57
2023/01/09 06:34:29;;;;;;;1.45;1.23;;;5.70;99.90;;;;;;5068432;28;20081;-60
2023/01/09 06:36:54;;;;;;;1.85;1.52;;;5.70;99.90;;;;;;5068817;28;20518;-56
2023/01/09 06:39:20;;;;;;;2.30;1.58;;;5.70;99.90;;;;;;5068539;28;20033;-54
2023/01/09 06:41:45;;;;;;;3.47;1.83;;;5.70;99.90;;;;;;5068443;28;20019;-55
2023/01/09 06:44:11;;;;;;;1.80;1.70;;;5.70;99.90;;;;;;5065730;28;20096;-53
2023/01/09 06:46:37;;;;;;;1.65;1.55;;;5.70;99.90;;;;;;5071661;28;20175;-56
2023/01/09 06:49:02;;;;;;;2.53;1.80;;;5.70;99.90;;;;;;5071864;28;20017;-56
2023/01/09 06:51:28;;;;;;;1.95;1.75;;;5.70;99.90;;;;;;5071824;28;20024;-57
2023/01/09 06:53:53;;;;;;;2.35;1.83;;;5.70;99.90;;;;;;5072194;28;20035;-57
2023/01/09 06:56:19;;;;;;;2.15;1.77;;;5.70;99.90;;;;;;5070803;28;20037;-53
2023/01/09 06:58:44;;;;;;;4.05;1.98;;;5.70;99.90;;;;;;5054145;28;20077;-57
2023/01/09 07:01:10;;;;;;;2.47;2.28;;;5.70;99.90;;;;;;5071383;28;20112;-54
2023/01/09 07:03:36;;;;;;;1.83;1.63;;;5.70;99.90;;;;;;5053805;28;20078;-57
2023/01/09 07:06:01;;;;;;;2.78;2.55;;;5.70;99.90;;;;;;5071468;28;20473;-55
2023/01/09 07:08:27;;;;;;;4.80;3.05;;;5.70;99.90;;;;;;5072121;28;20058;-55
2023/01/09 07:10:53;;;;;;;3.83;3.15;;;5.70;99.90;;;;;;5071913;28;20548;-58
2023/01/09 07:13:18;;;;;;;3.95;2.65;;;5.70;99.90;;;;;;5072158;28;20028;-57
2023/01/09 07:15:44;;;;;;;3.70;3.15;;;5.70;99.90;;;;;;5071585;28;20058;-56
2023/01/09 07:18:09;;;;;;;2.53;2.30;;;5.70;99.90;;;;;;5053400;28;20507;-54
2023/01/09 07:20:37;;;;;;;3.65;3.08;;;5.70;99.90;;;;;;5071343;28;20098;-56
2023/01/09 07:23:02;;;;;;;5.32;2.83;;;5.70;99.90;;;;;;5071715;28;20611;-54
2023/01/09 07:25:28;;;;;;;2.60;2.40;;;5.70;99.90;;;;;;5071024;28;20039;-55
2023/01/09 07:27:53;;;;;;;3.00;2.80;;;5.70;99.90;;;;;;5071670;28;20024;-57
2023/01/09 07:30:19;;;;;;;2.72;2.40;;;5.70;99.90;;;;;;5071332;28;20116;-55
2023/01/09 07:32:44;;;;;;;3.22;2.92;;;5.70;99.90;;;;;;5071428;28;20453;-55
2023/01/09 07:35:10;;;;;;;3.80;2.67;;;5.70;99.90;;;;;;5071079;28;20028;-54
2023/01/09 07:37:35;;;;;;;4.20;3.17;;;5.70;99.90;;;;;;5071751;28;20017;-57
2023/01/09 07:40:02;;;;;;;4.18;3.70;;;5.70;99.90;;;;;;5070805;28;20484;-56
2023/01/09 07:42:28;;;;;;;6.43;4.45;;;5.70;99.90;;;;;;5071044;28;20111;-57
2023/01/09 07:44:53;;;;;;;4.70;3.75;;;5.80;99.90;;;;;;5065217;28;20552;-54
2023/01/09 07:47:19;;;;;;;5.03;4.10;;;5.80;99.90;;;;;;5070088;28;20032;-54
2023/01/09 07:49:44;;;;;;;5.03;4.47;;;5.80;99.90;;;;;;5071667;28;20480;-55
2023/01/09 07:52:10;;;;;;;5.20;4.70;;;5.80;99.90;;;;;;5053483;28;20024;-56
2023/01/09 07:54:35;;;;;;;6.30;4.60;;;5.80;99.90;;;;;;5070957;28;20553;-54
2023/01/09 07:57:01;;;;;;;6.25;4.32;;;5.80;99.90;;;;;;5070712;28;20453;-56
2023/01/09 07:59:28;;;;;;;6.45;5.65;;;5.90;99.90;;;;;;5071079;28;20025;-56
2023/01/09 08:01:54;;;;;;;8.15;5.60;;;5.90;99.90;;;;;;5070905;28;20046;-56
2023/01/09 08:04:20;;;;;;;7.70;5.80;;;5.80;99.90;;;;;;5071024;28;20025;-55
2023/01/09 08:06:45;;;;;;;9.25;6.47;;;5.80;99.90;;;;;;5070799;28;20427;-55
2023/01/09 08:09:12;;;;;;;6.93;5.97;;;5.80;99.90;;;;;;5052797;28;20407;-56
2023/01/09 08:11:38;;;;;;;7.38;6.13;;;5.80;99.90;;;;;;5070839;28;20025;-54
2023/01/09 08:14:03;;;;;;;8.55;6.43;;;5.90;99.90;;;;;;5069705;28;20445;-54
2023/01/09 08:16:29;;;;;;;7.55;6.03;;;5.90;99.90;;;;;;5052123;28;20024;-54
2023/01/09 08:18:54;;;;;;;7.93;6.75;;;5.80;99.90;;;;;;5052417;28;20032;-56
2023/01/09 08:21:20;;;;;;;7.53;6.72;;;5.80;99.90;;;;;;5070421;28;20092;-57
2023/01/09 08:23:46;;;;;;;7.80;6.38;;;5.80;99.90;;;;;;5070331;28;20099;-57
2023/01/09 08:26:11;;;;;;;9.18;6.35;;;5.90;99.90;;;;;;5052123;28;20051;-53
2023/01/09 08:28:37;;;;;;;7.78;6.72;;;5.80;99.90;;;;;;5069913;28;20062;-56
2023/01/09 08:31:02;;;;;;;9.80;7.07;;;5.80;99.90;;;;;;5070559;28;20035;-52
2023/01/09 08:33:28;;;;;;;10.57;6.65;;;5.80;99.90;;;;;;5070344;28;20104;-53
2023/01/09 08:35:54;;;;;;;7.55;6.22;;;5.80;99.90;;;;;;5070174;28;20023;-54
2023/01/09 08:38:21;;;;;;;8.95;6.63;;;5.80;99.90;;;;;;5069848;28;20039;-54
2023/01/09 08:40:47;;;;;;;12.00;6.72;;;5.80;99.90;;;;;;5070298;28;20020;-53
2023/01/09 08:48:42;;;;;;;8.57;5.85;;;5.80;99.90;;;;;;5069824;28;20044;-53
2023/01/09 08:51:08;;;;;;;10.20;6.75;;;5.70;99.90;;;;;;5069969;28;20028;-56
2023/01/09 08:53:33;;;;;;;7.35;6.15;;;5.70;99.90;;;;;;5069996;28;20027;-56
2023/01/09 08:55:59;;;;;;;9.35;6.70;;;5.70;99.90;;;;;;5068816;28;20034;-56
2023/01/09 08:58:25;;;;;;;11.10;6.75;;;5.70;99.90;;;;;;5070066;28;20394;-52
2023/01/09 09:00:50;;;;;;;10.63;6.43;;;5.60;99.90;;;;;;5069144;28;20070;-53
2023/01/09 09:03:16;;;;;;;9.80;7.53;;;5.70;99.90;;;;;;5069951;28;20549;-56
2023/01/09 09:05:42;;;;;;;9.90;7.10;;;5.70;99.90;;;;;;5069493;28;20190;-55
2023/01/09 09:08:07;;;;;;;8.63;6.68;;;5.70;99.90;;;;;;5069045;28;20040;-55
2023/01/09 09:10:33;;;;;;;11.70;6.88;;;5.70;99.90;;;;;;5051509;28;20041;-55
2023/01/09 09:12:59;;;;;;;8.98;6.28;;;5.70;99.90;;;;;;5069460;28;20040;-55
2023/01/09 09:15:26;;;;;;;9.98;6.60;;;5.70;99.90;;;;;;5068273;28;20037;-53
2023/01/09 09:17:58;;;;;;;11.73;7.28;;;5.70;99.90;;;;;;5069650;28;20016;-55
2023/01/09 09:20:26;;;;;;;12.95;7.20;;;5.70;99.90;;;;;;5069455;28;20093;-53
2023/01/09 09:22:52;;;;;;;8.02;5.95;;;5.70;99.90;;;;;;5069571;28;20024;-57
2023/01/09 09:25:18;;;;;;;10.05;7.35;;;5.70;99.90;;;;;;5068955;28;20031;-55
2023/01/09 09:27:44;;;;;;;10.27;7.22;;;5.70;99.90;;;;;;5069312;28;20060;-56
2023/01/09 09:30:11;;;;;;;10.00;7.45;;;5.80;99.90;;;;;;5068139;28;20526;-56
2023/01/09 09:32:37;;;;;;;8.55;6.68;;;5.80;99.90;;;;;;5068342;28;20039;-56
2023/01/09 09:35:04;;;;;;;8.70;6.55;;;5.80;99.90;;;;;;5067898;28;20119;-53
2023/01/09 09:37:30;;;;;;;10.43;6.82;;;5.80;99.90;;;;;;5069338;28;20039;-55
2023/01/09 09:39:55;;;;;;;10.18;6.97;;;5.80;99.90;;;;;;5068823;28;20029;-55
2023/01/09 09:45:57;;;;;;;9.65;7.78;;;5.90;99.90;;;;;;5061661;28;20089;-51
2023/01/09 09:48:35;;;;;;;10.40;6.95;;;5.90;99.90;;;;;;5024488;28;20123;-55
2023/01/09 09:51:19;;;;;;;11.82;7.35;;;5.90;99.90;;;;;;5064548;28;20082;-53
2023/01/09 09:53:58;;;;;;;11.98;8.07;;;5.90;99.90;;;;;;5064820;28;20036;-52
2023/01/09 09:56:25;;;;;;;12.20;8.93;;;5.90;99.90;;;;;;5068562;28;20028;-54
2023/01/09 09:58:57;;;;;;;16.60;10.13;;;6.00;99.90;;;;;;5068395;28;20032;-55
2023/01/09 10:01:32;;;;;;;16.00;9.98;;;6.00;99.90;;;;;;5068997;28;20017;-54
2023/01/09 10:04:00;;;;;;;16.25;10.88;;;6.00;99.90;;;;;;5068937;28;20028;-53
2023/01/09 10:06:32;;;;;;;16.75;11.10;;;6.00;99.90;;;;;;5069098;28;20036;-56
2023/01/09 10:09:23;;;;;;;14.80;11.45;;;6.00;99.90;;;;;;5068815;28;20504;-53
2023/01/09 10:12:08;;;;;;;19.38;12.20;;;6.00;99.90;;;;;;5064785;28;20029;-55
2023/01/09 10:14:33;;;;;;;14.82;11.65;;;6.00;99.90;;;;;;5068218;28;20051;-53
2023/01/09 10:17:17;;;;;;;15.05;11.50;;;6.00;99.90;;;;;;5069014;28;20488;-53
2023/01/09 10:20:18;;;;;;;17.55;12.57;;;6.00;99.90;;;;;;5069947;28;20048;-55
2023/01/09 10:23:22;;;;;;;15.00;10.63;;;6.00;99.90;;;;;;5066581;28;20020;-52
2023/01/09 10:26:11;;;;;;;16.00;11.45;;;6.00;99.90;;;;;;5070797;28;20380;-54
2023/01/09 10:29:05;;;;;;;17.13;11.38;;;6.00;99.90;;;;;;5071650;28;20029;-54
2023/01/09 10:31:42;;;;;;;15.07;9.63;;;6.00;99.90;;;;;;5072588;28;20036;-56
2023/01/09 10:34:28;;;;;;;15.98;10.35;;;6.00;99.90;;;;;;5072494;28;20024;-54
2023/01/09 10:37:00;;;;;;;15.88;9.15;;;6.00;99.90;;;;;;5053952;28;20035;-53
2023/01/09 10:39:39;;;;;;;14.68;10.30;;;6.00;99.90;;;;;;5071578;28;20070;-52
2023/01/09 10:42:10;;;;;;;19.10;10.50;;;6.00;99.90;;;;;;5072634;28;20102;-52
2023/01/09 10:44:44;;;;;;;15.10;10.70;;;5.90;99.90;;;;;;5065653;28;20060;-55
2023/01/09 10:47:26;;;;;;;15.68;10.30;;;5.90;99.90;;;;;;5054190;28;20021;-53
2023/01/09 10:49:53;;;;;;;18.17;10.73;;;5.90;99.90;;;;;;5054191;28;20024;-54
2023/01/09 10:52:27;;;;;;;11.30;9.27;;;5.90;99.90;;;;;;5071685;28;20026;-56
2023/01/09 10:55:12;;;;;;;12.57;8.77;;;5.90;99.90;;;;;;5065958;28;20025;-56
2023/01/09 10:57:43;;;;;;;11.90;9.20;;;5.90;99.90;;;;;;5071512;28;20020;-57
2023/01/09 11:00:21;;;;;;;16.80;10.13;;;5.90;99.90;;;;;;5054019;28;20017;-55
2023/01/09 11:02:47;;;;;;;13.07;8.52;;;5.90;99.90;;;;;;5052717;28;20025;-55
2023/01/09 11:05:23;;;;;;;15.27;9.20;;;5.90;99.90;;;;;;5071496;28;20024;-55
2023/01/09 11:07:55;;;;;;;14.45;8.95;;;6.00;99.90;;;;;;5071675;28;20029;-53
2023/01/09 11:10:21;;;;;;;16.05;9.70;;;5.90;99.90;;;;;;5072032;28;20033;-56
2023/01/09 11:12:47;;;;;;;13.68;10.68;;;5.90;99.90;;;;;;5053506;28;20032;-55
2023/01/09 11:15:15;;;;;;;14.65;10.48;;;5.90;99.90;;;;;;5071449;28;20016;-55
2023/01/09 11:17:51;;;;;;;14.45;9.23;;;5.90;99.90;;;;;;5071459;28;20040;-54
2023/01/09 11:20:24;;;;;;;12.80;9.00;;;5.90;99.90;;;;;;5071906;28;20026;-56
2023/01/09 11:22:53;;;;;;;16.42;9.30;;;6.00;99.90;;;;;;5071680;28;20035;-56
2023/01/09 11:25:22;;;;;;;10.27;7.57;;;6.00;99.90;;;;;;5071729;28;20032;-53
2023/01/09 11:28:05;;;;;;;12.13;7.53;;;6.00;99.90;;;;;;5071113;28;20029;-52
2023/01/09 11:30:55;;;;;;;18.38;7.90;;;6.00;99.90;;;;;;5069475;28;20042;-55
2023/01/09 11:33:24;;;;;;;10.35;7.78;;;6.00;99.90;;;;;;5070192;28;20024;-53
2023/01/09 11:36:06;;;;;;;9.38;6.70;;;6.00;99.90;;;;;;5070472;28;20067;-52
2023/01/09 11:38:51;;;;;;;10.23;7.13;;;6.00;99.90;;;;;;5050998;28;20033;-54
2023/01/09 11:41:21;;;;;;;12.77;5.97;;;6.10;99.90;;;;;;5070005;28;20017;-55
2023/01/09 11:43:50;;;;;;;11.68;6.85;;;6.10;99.90;;;;;;5061371;28;20051;-55
2023/01/09 11:46:37;;;;;;;10.68;5.40;;;6.10;99.90;;;;;;5070023;28;20052;-52
2023/01/09 11:49:19;;;;;;;8.38;6.75;;;6.20;99.90;;;;;;5070073;28;20032;-54
2023/01/09 11:51:45;;;;;;;12.00;5.68;;;6.20;99.90;;;;;;5063493;28;20101;-52
2023/01/09 11:54:19;;;;;;;10.48;6.25;;;6.20;99.90;;;;;;5070256;28;20708;-55
2023/01/09 11:56:46;;;;;;;9.75;5.20;;;6.20;99.90;;;;;;5062419;28;20025;-54
2023/01/09 11:59:15;;;;;;;7.40;5.05;;;6.20;99.90;;;;;;5069815;28;20101;-52
2023/01/09 12:01:51;;;;;;;9.88;5.50;;;6.20;99.90;;;;;;5070208;28;20388;-53
2023/01/09 12:04:34;;;;;;;9.43;4.88;;;6.30;99.90;;;;;;5070073;28;20048;-54
2023/01/09 12:07:18;;;;;;;14.82;5.45;;;6.30;99.90;;;;;;5070143;28;20456;-53
2023/01/09 12:10:01;;;;;;;8.00;4.97;;;6.30;99.90;;;;;;5062591;28;20511;-54
2023/01/09 12:12:34;;;;;;;10.45;4.68;;;6.40;99.90;;;;;;5069715;28;20024;-56
2023/01/09 12:15:15;;;;;;;11.02;5.15;;;6.40;99.90;;;;;;5070039;28;20031;-55
2023/01/09 12:17:59;;;;;;;6.95;4.63;;;6.40;99.90;;;;;;5065600;28;20021;-54
2023/01/09 12:20:30;;;;;;;10.93;5.18;;;6.50;99.90;;;;;;5069743;28;20946;-56
2023/01/09 12:23:31;;;;;;;8.18;4.90;;;6.50;99.90;;;;;;5050486;28;20078;-52
2023/01/09 12:26:21;;;;;;;7.97;4.28;;;6.50;99.90;;;;;;5063740;28;20121;-55
2023/01/09 12:28:46;;;;;;;11.18;4.40;;;6.60;99.90;;;;;;5031770;28;1072436;-54
2023/01/09 12:31:35;;;;;;;9.35;4.63;;;6.60;99.90;;;;;;5070235;28;20095;-53
2023/01/09 12:34:28;;;;;;;6.57;4.45;;;6.60;99.90;;;;;;5069799;28;20040;-54
2023/01/09 12:37:28;;;;;;;9.27;4.53;;;6.60;99.90;;;;;;5069954;28;20049;-55
2023/01/09 12:40:12;;;;;;;7.60;4.32;;;6.70;99.90;;;;;;5066652;28;20523;-53
2023/01/09 12:43:04;;;;;;;11.77;5.55;;;6.60;99.90;;;;;;5061927;28;20027;-54
2023/01/09 12:45:29;;;;;;;5.20;3.72;;;6.60;99.90;;;;;;5063166;28;20078;-56
2023/01/09 12:48:16;;;;;;;9.60;4.55;;;6.50;99.90;;;;;;5052372;28;20021;-54
2023/01/09 12:51:05;;;;;;;6.95;5.00;;;6.60;99.90;;;;;;5067891;28;20023;-52
2023/01/09 12:53:36;;;;;;;10.90;4.85;;;6.50;99.90;;;;;;5070274;28;20052;-52
2023/01/09 12:56:15;;;;;;;7.65;4.53;;;6.50;99.90;;;;;;5069637;28;20029;-53
2023/01/09 12:58:45;;;;;;;10.10;4.00;;;6.50;99.90;;;;;;5063141;28;20020;-55
2023/01/09 13:01:21;;;;;;;9.07;4.68;;;6.50;99.90;;;;;;5070441;28;20024;-57
2023/01/09 13:04:08;;;;;;;10.23;4.22;;;6.40;99.90;;;;;;5070066;28;20017;-56
2023/01/09 13:06:36;;;;;;;;;;;6.40;99.90;;;;;;5069520;28;20116;-55
2023/01/09 13:09:28;;;;;;;8.57;6.13;;;6.40;99.90;;;;;;5069680;28;20395;-53
2023/01/09 13:12:02;;;;;;;13.73;9.10;;;6.40;99.90;;;;;;5063891;28;20040;-56
2023/01/09 13:15:04;;;;;;;8.88;5.80;;;6.30;99.90;;;;;;5069509;28;20091;-53
2023/01/09 13:17:42;;;;;;;9.48;5.72;;;6.30;99.90;;;;;;5069633;28;20044;-56
2023/01/09 13:20:32;;;;;;;7.72;5.28;;;6.30;99.90;;;;;;5068935;28;20024;-55
2023/01/09 13:22:59;;;;;;;7.82;6.03;;;6.30;99.90;;;;;;5068818;28;20057;-52